Time;durP1;ratioP1;P1;durP2;ratioP2;P2;SDS_P1;SDS_P2;PMS_P1;PMS_P2;Temp;Humidity;BMP_temperature;BMP_pressure;BME280_temperature;BME280_humidity;BME280_pressure;Samples;Min_cycle;Max_cycle;Signal;HPM_P1;HPM_P2
2023/07/04 00:01:19;;;;;;;6.38;5.03;;;;;;;22.07;52.61;95469.94;5073893;28;20201;-85
2023/07/04 00:03:47;;;;;;;5.72;5.07;;;;;;;22.07;52.79;95468.13;5072845;28;20499;-84
2023/07/04 00:06:16;;;;;;;5.65;5.03;;;;;;;22.05;52.74;95470.19;5073754;28;20209;-84
2023/07/04 00:08:43;;;;;;;5.88;4.93;;;;;;;22.10;52.63;95459.75;5073668;28;20204;-83
2023/07/04 00:11:10;;;;;;;6.35;5.32;;;;;;;22.12;52.96;95462.91;5073740;28;20200;-84
2023/07/04 00:13:37;;;;;;;7.50;5.25;;;;;;;22.14;52.38;95463.44;5073136;28;20233;-84
2023/07/04 00:16:07;;;;;;;6.50;5.13;;;;;;;22.12;52.54;95459.50;5073558;28;20236;-83
2023/07/04 00:18:36;;;;;;;7.45;5.35;;;;;;;22.12;52.55;95456.88;5059685;28;20232;-84
2023/07/04 00:21:04;;;;;;;5.65;4.80;;;;;;;22.09;52.77;95465.25;5053299;28;20620;-83
2023/07/04 00:23:33;;;;;;;7.85;4.95;;;;;;;22.01;53.03;95464.66;5053294;28;20267;-84
2023/07/04 00:26:00;;;;;;;7.20;4.97;;;;;;;22.00;53.24;95457.84;5053795;28;20197;-84
2023/07/04 00:28:26;;;;;;;7.97;5.13;;;;;;;21.97;53.38;95447.03;5057032;28;20221;-84
2023/07/04 00:30:54;;;;;;;7.55;5.15;;;;;;;21.96;53.14;95446.22;5063494;28;21036;-85
2023/07/04 00:33:22;;;;;;;6.20;4.68;;;;;;;21.94;53.02;95444.91;5052787;28;20217;-85
2023/07/04 00:35:51;;;;;;;5.60;4.57;;;;;;;21.91;53.54;95451.47;5053121;28;20220;-83
2023/07/04 00:38:19;;;;;;;6.32;5.63;;;;;;;21.84;53.77;95456.09;5065576;28;20228;-84
2023/07/04 00:40:46;;;;;;;6.25;4.72;;;;;;;21.84;53.63;95453.47;5092883;28;20230;-83
2023/07/04 00:43:12;;;;;;;5.43;4.70;;;;;;;21.80;53.60;95451.59;5092858;28;20200;-84
2023/07/04 00:45:43;;;;;;;5.90;4.80;;;;;;;21.77;53.99;95458.13;5093745;28;20203;-83
2023/07/04 00:48:12;;;;;;;5.38;4.85;;;;;;;21.71;54.02;95467.81;5078908;28;20565;-84
2023/07/04 00:50:41;;;;;;;9.27;5.15;;;;;;;21.68;53.87;95464.88;5073370;28;20211;-83
2023/07/04 00:53:11;;;;;;;7.68;4.95;;;;;;;21.73;53.92;95464.16;5072560;28;20258;-84
2023/07/04 00:55:40;;;;;;;5.95;4.40;;;;;;;21.74;54.00;95461.28;5072567;28;20204;-84
2023/07/04 00:58:08;;;;;;;8.32;5.05;;;;;;;21.73;53.96;95472.00;5072561;28;20193;-85
2023/07/04 01:00:37;;;;;;;5.97;4.00;;;;;;;21.76;54.08;95474.09;5071842;28;20205;-83
2023/07/04 01:03:07;;;;;;;5.93;5.32;;;;;;;21.77;53.99;95470.44;5071957;28;20204;-85
2023/07/04 01:05:41;;;;;;;4.97;4.47;;;;;;;21.69;53.84;95480.38;5073153;28;20197;-84
2023/07/04 01:08:13;;;;;;;7.80;4.65;;;;;;;21.65;54.04;95479.28;5073386;28;20307;-84
2023/07/04 01:10:43;;;;;;;6.43;4.45;;;;;;;21.69;53.85;95490.06;5073417;28;20208;-85
2023/07/04 01:13:28;;;;;;;6.65;4.30;;;;;;;21.68;53.77;95497.13;5072738;28;20197;-85
2023/07/04 01:15:54;;;;;;;6.28;4.32;;;;;;;21.61;54.01;95498.34;5073414;28;20200;-85
2023/07/04 01:18:23;;;;;;;5.80;4.18;;;;;;;21.58;54.22;95509.31;5060259;28;20247;-85
2023/07/04 01:20:50;;;;;;;6.10;4.47;;;;;;;21.62;53.71;95510.41;5053218;28;20825;-85
2023/07/04 01:23:27;;;;;;;6.93;4.50;;;;;;;21.56;53.96;95520.03;5053291;28;20252;-84
2023/07/04 01:26:02;;;;;;;7.07;4.35;;;;;;;21.58;54.09;95511.94;5056216;28;20713;-85
2023/07/04 01:28:30;;;;;;;5.82;4.50;;;;;;;21.59;54.40;95518.75;5073089;28;20285;-85
2023/07/04 01:30:57;;;;;;;6.00;4.13;;;;;;;21.57;53.81;95516.38;5071634;28;20291;-84
2023/07/04 01:33:25;;;;;;;6.13;4.60;;;;;;;21.62;53.76;95519.06;5072963;28;20224;-84
2023/07/04 01:35:52;;;;;;;5.72;4.05;;;;;;;21.57;53.98;95507.72;5072837;28;20744;-85
2023/07/04 01:38:20;;;;;;;5.72;4.03;;;;;;;21.54;54.06;95513.50;5078775;28;20188;-83
2023/07/04 01:40:46;;;;;;;5.40;3.90;;;;;;;21.55;53.92;95507.97;5093177;28;20211;-85
2023/07/04 01:43:13;;;;;;;5.00;4.18;;;;;;;21.53;53.82;95511.91;5092676;28;20211;-85
2023/07/04 01:45:40;;;;;;;4.85;3.80;;;;;;;21.54;53.74;95527.38;5092608;28;20253;-85
2023/07/04 01:48:07;;;;;;;6.20;3.78;;;;;;;21.54;53.74;95527.38;5078805;28;20599;-85
2023/07/04 01:50:34;;;;;;;4.63;3.83;;;;;;;21.51;53.94;95527.88;5072694;28;20200;-84
2023/07/04 01:53:00;;;;;;;4.95;3.72;;;;;;;21.52;53.83;95521.59;5072014;28;20209;-84
2023/07/04 01:55:27;;;;;;;6.57;4.30;;;;;;;21.48;54.42;95522.31;5072024;28;20201;-85
2023/07/04 01:57:53;;;;;;;5.68;3.72;;;;;;;21.43;54.19;95522.28;5071915;28;20197;-84
2023/07/04 02:00:22;;;;;;;4.53;3.55;;;;;;;21.36;54.30;95531.09;5071746;28;20200;-84
2023/07/04 02:02:49;;;;;;;4.47;3.60;;;;;;;21.34;54.55;95535.03;5072305;28;20244;-85
2023/07/04 02:05:19;;;;;;;5.22;3.90;;;;;;;21.30;54.47;95539.16;5071519;28;20216;-85
2023/07/04 02:07:45;;;;;;;6.95;4.05;;;;;;;21.23;54.78;95547.19;5071487;28;20655;-84
2023/07/04 02:10:12;;;;;;;5.20;3.75;;;;;;;21.27;54.77;95558.78;5071256;28;20654;-84
2023/07/04 02:12:38;;;;;;;6.07;3.95;;;;;;;21.26;54.97;95557.19;5071063;28;20212;-84
2023/07/04 02:15:07;;;;;;;4.30;3.58;;;;;;;21.18;55.15;95562.00;5071187;28;20336;-84
2023/07/04 02:17:34;;;;;;;5.35;3.72;;;;;;;21.17;55.06;95555.19;5065327;28;20197;-85
2023/07/04 02:20:03;;;;;;;4.32;3.30;;;;;;;21.15;55.62;95554.66;5051752;28;20798;-84
2023/07/04 02:22:30;;;;;;;13.45;3.72;;;;;;;20.98;58.97;95560.72;5061575;28;20266;-83
2023/07/04 02:24:56;;;;;;;6.65;3.67;;;;;;;20.84;60.80;95561.31;5071133;28;20268;-84
2023/07/04 02:27:22;;;;;;;5.93;4.07;;;;;;;20.79;62.49;95554.19;5058833;28;20250;-84
2023/07/04 02:29:50;;;;;;;4.15;3.38;;;;;;;20.66;62.21;95547.47;5051130;28;20197;-84
2023/07/04 02:32:16;;;;;;;5.05;3.58;;;;;;;20.60;63.07;95545.00;5050905;28;20224;-84
2023/07/04 02:34:42;;;;;;;5.28;3.30;;;;;;;20.61;63.30;95543.97;5051387;28;20567;-84
2023/07/04 02:37:11;;;;;;;5.47;4.03;;;;;;;20.49;64.49;95546.69;5050971;28;20202;-84
2023/07/04 02:39:37;;;;;;;5.25;3.50;;;;;;;20.50;64.27;95560.56;5085911;28;20262;-83
2023/07/04 02:42:04;;;;;;;4.18;3.22;;;;;;;20.46;64.85;95557.63;5090927;28;20210;-84
2023/07/04 02:44:31;;;;;;;5.22;3.40;;;;;;;20.41;66.15;95561.97;5091101;28;20250;-83
2023/07/04 02:46:57;;;;;;;5.57;3.45;;;;;;;20.40;66.32;95565.66;5086249;28;20791;-84
2023/07/04 02:49:24;;;;;;;4.70;3.42;;;;;;;20.43;65.68;95559.94;5070441;28;20690;-84
2023/07/04 02:51:50;;;;;;;6.50;3.50;;;;;;;20.35;66.83;95567.13;5070466;28;20204;-83
2023/07/04 02:54:18;;;;;;;3.60;3.22;;;;;;;20.33;67.27;95568.38;5070433;28;20224;-84
2023/07/04 02:56:45;;;;;;;3.95;3.00;;;;;;;20.35;66.99;95553.25;5070073;28;20296;-84
2023/07/04 02:59:11;;;;;;;6.57;3.70;;;;;;;20.41;67.07;95551.53;5070212;28;20254;-83
2023/07/04 03:01:38;;;;;;;5.00;3.80;;;;;;;20.20;71.41;95553.81;5070013;28;20212;-83
2023/07/04 03:04:05;;;;;;;4.18;3.58;;;;;;;20.09;71.51;95544.22;5070153;28;20717;-84
2023/07/04 03:06:31;;;;;;;4.32;3.70;;;;;;;20.06;72.63;95543.88;5056681;28;20691;-83
2023/07/04 03:08:58;;;;;;;4.43;3.70;;;;;;;20.06;73.03;95546.50;5050097;28;20225;-85
2023/07/04 03:11:25;;;;;;;6.07;3.45;;;;;;;20.06;71.29;95539.44;5050594;28;20204;-84
2023/07/04 03:13:52;;;;;;;4.65;3.13;;;;;;;20.05;71.44;95540.47;5050890;28;20235;-83
2023/07/04 03:16:18;;;;;;;3.72;3.20;;;;;;;20.00;73.07;95533.38;5050886;28;20225;-83
2023/07/04 03:18:45;;;;;;;6.47;3.47;;;;;;;19.97;73.30;95540.88;5066558;28;20193;-84
2023/07/04 03:21:11;;;;;;;4.88;3.33;;;;;;;19.98;72.72;95535.41;5062572;28;20195;-83
2023/07/04 03:23:37;;;;;;;5.40;3.03;;;;;;;19.94;74.06;95538.72;5049077;28;20668;-83
2023/07/04 03:26:04;;;;;;;3.63;3.28;;;;;;;19.96;73.42;95534.84;5049970;28;20206;-84
2023/07/04 03:28:32;;;;;;;6.20;4.00;;;;;;;19.93;73.33;95537.16;5049767;28;20224;-83
2023/07/04 03:30:58;;;;;;;3.67;3.22;;;;;;;19.94;73.29;95536.13;5048858;28;20202;-84
2023/07/04 03:33:25;;;;;;;6.22;3.47;;;;;;;19.87;74.27;95538.06;5049454;28;20710;-83
2023/07/04 03:35:51;;;;;;;3.42;2.92;;;;;;;19.88;72.95;95545.69;5049891;28;20208;-84
2023/07/04 03:38:18;;;;;;;3.75;3.08;;;;;;;19.91;72.99;95549.66;5062428;28;20655;-83
2023/07/04 03:40:44;;;;;;;4.20;3.60;;;;;;;19.88;74.54;95550.91;5090572;28;20200;-83
2023/07/04 03:43:11;;;;;;;5.10;3.78;;;;;;;19.88;74.08;95553.53;5090586;28;20199;-84
2023/07/04 03:45:39;;;;;;;4.97;3.78;;;;;;;19.91;73.64;95565.34;5089982;28;20219;-83
2023/07/04 03:48:05;;;;;;;4.63;3.50;;;;;;;19.94;73.52;95567.47;5076564;28;20216;-83
2023/07/04 03:50:32;;;;;;;4.60;3.53;;;;;;;19.99;73.70;95581.44;5070038;28;20200;-84
2023/07/04 03:52:58;;;;;;;5.30;3.42;;;;;;;20.05;73.25;95584.13;5069179;28;20223;-83
2023/07/04 03:55:25;;;;;;;6.25;3.88;;;;;;;20.07;74.08;95590.69;5069272;28;20232;-83
2023/07/04 03:57:51;;;;;;;4.68;3.40;;;;;;;20.07;73.24;95582.06;5070041;28;20287;-83
2023/07/04 04:00:18;;;;;;;5.65;3.58;;;;;;;20.00;74.55;95588.25;5069830;28;20873;-84
2023/07/04 04:02:46;;;;;;;4.80;3.70;;;;;;;20.02;74.21;95583.56;5069328;28;20205;-83
2023/07/04 04:05:13;;;;;;;4.63;3.50;;;;;;;20.04;74.83;95588.56;5069458;28;20244;-84
2023/07/04 04:07:39;;;;;;;4.57;3.85;;;;;;;20.11;74.42;95596.25;5069301;28;20250;-83
2023/07/04 04:10:06;;;;;;;6.22;4.13;;;;;;;20.14;73.81;95587.94;5069625;28;20685;-84
2023/07/04 04:12:32;;;;;;;4.65;3.45;;;;;;;20.15;73.70;95585.09;5061486;28;20209;-83
2023/07/04 04:14:59;;;;;;;4.57;3.15;;;;;;;20.17;73.47;95590.09;5060877;28;20592;-83
2023/07/04 04:17:25;;;;;;;6.05;3.58;;;;;;;20.09;74.30;95593.88;5064482;28;20251;-84
2023/07/04 04:19:53;;;;;;;4.78;3.78;;;;;;;20.06;74.33;95589.13;5049746;28;20590;-83
2023/07/04 04:22:19;;;;;;;4.53;3.30;;;;;;;20.07;73.84;95598.53;5049342;28;20209;-83
2023/07/04 04:24:46;;;;;;;4.88;3.13;;;;;;;20.01;75.27;95607.34;5049452;28;20713;-83
2023/07/04 04:27:13;;;;;;;3.80;2.95;;;;;;;20.01;74.64;95604.72;5060370;28;20205;-84
2023/07/04 04:29:40;;;;;;;4.15;2.58;;;;;;;19.98;74.88;95606.00;5068940;28;20246;-83
2023/07/04 04:32:06;;;;;;;3.25;2.80;;;;;;;19.96;75.36;95610.66;5068306;28;20291;-83
2023/07/04 04:34:33;;;;;;;4.43;2.88;;;;;;;20.00;74.80;95610.97;5070051;28;20244;-83
2023/07/04 04:37:01;;;;;;;7.00;3.00;;;;;;;20.01;74.79;95612.56;5072837;28;20670;-83
2023/07/04 04:39:28;;;;;;;4.70;2.58;;;;;;;20.08;74.42;95615.81;5089154;28;20184;-84
2023/07/04 04:41:54;;;;;;;4.00;2.30;;;;;;;20.02;73.74;95608.91;5092941;28;20208;-84
2023/07/04 04:44:21;;;;;;;3.88;2.47;;;;;;;20.03;73.36;95597.41;5093215;28;20741;-83
2023/07/04 04:46:49;;;;;;;3.85;2.80;;;;;;;20.02;73.61;95603.69;5089406;28;20197;-82
2023/07/04 04:49:17;;;;;;;3.17;2.67;;;;;;;20.00;73.25;95605.75;5072876;28;20228;-84
2023/07/04 04:51:44;;;;;;;2.75;2.45;;;;;;;20.01;72.99;95612.56;5068805;28;20208;-83
2023/07/04 04:54:12;;;;;;;3.10;2.80;;;;;;;20.08;72.80;95618.44;5062124;28;20308;-83
2023/07/04 04:56:40;;;;;;;5.00;2.50;;;;;;;20.07;72.16;95614.22;5071409;28;20208;-84
2023/07/04 04:59:06;;;;;;;2.80;2.17;;;;;;;20.05;71.96;95615.50;5072785;28;20829;-83
2023/07/04 05:01:36;;;;;;;5.15;2.90;;;;;;;20.04;72.71;95622.53;5072097;28;20208;-83
2023/07/04 05:04:03;;;;;;;6.82;2.53;;;;;;;20.08;72.52;95631.50;5072749;28;20217;-84
2023/07/04 05:06:31;;;;;;;4.22;2.75;;;;;;;20.11;72.46;95630.25;5072348;28;20205;-83
2023/07/04 05:08:57;;;;;;;5.97;3.22;;;;;;;20.10;72.01;95636.50;5065902;28;20220;-83
2023/07/04 05:11:25;;;;;;;8.95;3.40;;;;;;;20.09;72.24;95634.91;5064446;28;20209;-83
2023/07/04 05:13:52;;;;;;;9.52;4.00;;;;;;;20.10;72.32;95634.69;5089893;28;20269;-83
2023/07/04 05:16:21;;;;;;;5.72;2.80;;;;;;;20.10;71.22;95634.69;5051869;28;20202;-83
2023/07/04 05:18:48;;;;;;;4.47;2.35;;;;;;;19.99;70.55;95631.09;5068348;28;20192;-84
2023/07/04 05:21:17;;;;;;;5.10;3.83;;;;;;;20.00;70.31;95631.91;5063652;28;20242;-83
2023/07/04 05:23:45;;;;;;;6.80;5.60;;;;;;;20.10;70.06;95637.28;5052208;28;20281;-84
2023/07/04 05:26:14;;;;;;;2.30;2.10;;;;;;;20.11;69.62;95651.16;5054287;28;20659;-83
2023/07/04 05:28:42;;;;;;;3.25;2.25;;;;;;;20.09;69.58;95643.53;5051324;28;20221;-83
2023/07/04 05:31:12;;;;;;;3.72;2.53;;;;;;;20.08;69.72;95635.94;5051427;28;20583;-83
2023/07/04 05:33:39;;;;;;;2.03;1.80;;;;;;;20.09;68.74;95635.69;5051472;28;20214;-83
2023/07/04 05:36:07;;;;;;;2.78;2.30;;;;;;;20.11;68.12;95633.66;5051810;28;20701;-83
2023/07/04 05:38:34;;;;;;;2.58;2.00;;;;;;;20.15;68.35;95633.97;5069290;28;20192;-83
2023/07/04 05:41:01;;;;;;;2.38;1.90;;;;;;;20.18;68.07;95633.50;5092059;28;20192;-84
2023/07/04 05:43:28;;;;;;;2.45;1.70;;;;;;;20.22;67.92;95630.16;5092222;28;20818;-83
2023/07/04 05:45:56;;;;;;;3.22;2.10;;;;;;;20.18;67.96;95629.09;5091532;28;20239;-84
2023/07/04 05:48:22;;;;;;;2.17;1.63;;;;;;;20.13;68.12;95628.97;5076045;28;20266;-84
2023/07/04 05:50:53;;;;;;;3.78;2.08;;;;;;;20.13;68.23;95634.22;5071823;28;20720;-83
2023/07/04 05:53:23;;;;;;;3.97;2.08;;;;;;;20.10;68.67;95639.91;5071231;28;20207;-83
2023/07/04 05:55:49;;;;;;;2.25;1.92;;;;;;;20.20;68.69;95636.69;5071398;28;20823;-84
2023/07/04 05:58:17;;;;;;;2.40;1.88;;;;;;;20.24;69.34;95637.78;5070760;28;20201;-83
2023/07/04 06:00:43;;;;;;;3.15;2.13;;;;;;;20.23;69.76;95637.00;5071705;28;20196;-84
2023/07/04 06:03:11;;;;;;;2.75;2.13;;;;;;;20.30;69.45;95640.25;5071202;28;20205;-83
2023/07/04 06:05:40;;;;;;;2.20;2.00;;;;;;;20.27;69.25;95642.53;5064478;28;20586;-83
2023/07/04 06:08:06;;;;;;;3.13;2.22;;;;;;;20.31;68.96;95641.84;5066319;28;20475;-84
2023/07/04 06:10:33;;;;;;;1.98;1.88;;;;;;;20.33;69.28;95639.78;5071531;28;20212;-84
2023/07/04 06:12:59;;;;;;;2.53;2.10;;;;;;;20.44;68.81;95643.38;5085435;28;20207;-84
2023/07/04 06:15:26;;;;;;;3.55;2.05;;;;;;;20.51;68.58;95646.66;5080030;28;20931;-83
2023/07/04 06:17:53;;;;;;;2.35;2.13;;;;;;;20.57;68.26;95648.34;5082096;28;20193;-83
2023/07/04 06:20:22;;;;;;;2.30;2.10;;;;;;;20.62;68.31;95655.44;5070434;28;20193;-83
2023/07/04 06:22:49;;;;;;;2.90;1.80;;;;;;;20.71;67.06;95651.41;5050524;28;20335;-83
2023/07/04 06:25:15;;;;;;;3.22;1.92;;;;;;;20.73;65.72;95649.38;5051064;28;20228;-84
2023/07/04 06:27:44;;;;;;;2.80;1.58;;;;;;;20.71;65.05;95651.41;5050808;28;20346;-81
2023/07/04 06:30:12;;;;;;;2.75;2.00;;;;;;;20.71;65.34;95648.00;5050478;28;20661;-83
2023/07/04 06:32:38;;;;;;;2.08;1.77;;;;;;;20.73;65.51;95653.81;5050074;28;20206;-83
2023/07/04 06:35:05;;;;;;;1.80;1.70;;;;;;;20.76;65.37;95648.09;5050442;28;20225;-84
2023/07/04 06:37:33;;;;;;;2.03;1.60;;;;;;;20.71;65.45;95648.81;5050689;28;20251;-83
2023/07/04 06:39:59;;;;;;;1.83;1.70;;;;;;;20.74;65.05;95647.53;5090740;28;20246;-82
2023/07/04 06:42:26;;;;;;;1.73;1.60;;;;;;;20.64;65.61;95651.56;5089441;28;20200;-82
2023/07/04 06:44:52;;;;;;;2.10;1.80;;;;;;;20.69;65.51;95645.63;5071955;28;20217;-82
2023/07/04 06:47:19;;;;;;;2.22;1.90;;;;;;;20.74;65.19;95650.94;5049338;28;20198;-82
2023/07/04 06:49:45;;;;;;;3.05;1.80;;;;;;;20.83;64.71;95646.09;5049137;28;20229;-84
2023/07/04 06:52:12;;;;;;;2.22;1.65;;;;;;;20.94;65.22;95653.09;5049491;28;20201;-83
2023/07/04 06:54:39;;;;;;;2.20;2.00;;;;;;;21.06;65.10;95650.38;5049950;28;20222;-83
2023/07/04 06:57:07;;;;;;;2.17;1.70;;;;;;;21.07;64.96;95654.56;5049467;28;20202;-84
2023/07/04 06:59:33;;;;;;;1.90;1.77;;;;;;;21.09;64.43;95655.13;5050436;28;20205;-84
2023/07/04 07:01:59;;;;;;;1.80;1.70;;;;;;;21.12;64.43;95662.50;5055421;28;20607;-85
2023/07/04 07:04:26;;;;;;;4.20;1.90;;;;;;;20.98;64.15;95662.81;5052156;28;20222;-85
2023/07/04 07:06:52;;;;;;;2.10;1.90;;;;;;;20.90;64.68;95665.06;5050150;28;20710;-83
2023/07/04 07:09:18;;;;;;;1.90;1.80;;;;;;;20.82;65.01;95662.81;5079761;28;20216;-84
2023/07/04 07:11:46;;;;;;;2.53;1.60;;;;;;;20.83;64.95;95662.59;5090126;28;20613;-83
2023/07/04 07:14:13;;;;;;;2.92;1.75;;;;;;;20.82;64.78;95658.38;5090176;28;20235;-84
2023/07/04 07:16:39;;;;;;;1.85;1.60;;;;;;;20.92;64.66;95658.56;5054222;28;20613;-85
2023/07/04 07:19:07;;;;;;;2.20;1.60;;;;;;;20.96;65.08;95669.34;5068153;28;20566;-83
2023/07/04 07:21:33;;;;;;;1.65;1.55;;;;;;;20.99;64.71;95664.41;5059531;28;20201;-85
2023/07/04 07:24:01;;;;;;;3.05;1.80;;;;;;;21.16;65.31;95668.84;5049853;28;20221;-84
2023/07/04 07:26:28;;;;;;;1.73;1.63;;;;;;;21.25;64.72;95665.59;5049624;28;20270;-83
2023/07/04 07:28:56;;;;;;;3.05;1.77;;;;;;;21.22;64.31;95668.69;5050079;28;20441;-83
2023/07/04 07:31:23;;;;;;;2.05;1.50;;;;;;;21.34;64.23;95669.41;5049280;28;20284;-84
2023/07/04 07:33:50;;;;;;;1.80;1.55;;;;;;;21.43;64.13;95664.53;5049883;28;20225;-83
2023/07/04 07:36:20;;;;;;;2.83;1.90;;;;;;;21.36;64.06;95675.16;5049564;28;20358;-85
2023/07/04 07:38:46;;;;;;;2.00;1.80;;;;;;;21.28;64.16;95666.94;5069979;28;20571;-83
2023/07/04 07:41:13;;;;;;;2.53;1.70;;;;;;;21.30;64.13;95655.19;5089441;28;20199;-84
2023/07/04 07:43:42;;;;;;;2.08;1.70;;;;;;;21.46;63.92;95663.25;5090094;28;20238;-84
2023/07/04 07:46:11;;;;;;;1.75;1.63;;;;;;;21.64;63.16;95649.84;5089806;28;20207;-84
2023/07/04 07:48:37;;;;;;;4.05;2.00;;;;;;;21.79;62.87;95652.66;5071485;28;20205;-84
2023/07/04 07:51:05;;;;;;;2.42;1.60;;;;;;;21.94;61.85;95655.44;5069637;28;20201;-84
2023/07/04 07:53:31;;;;;;;2.03;1.83;;;;;;;21.97;61.93;95660.19;5069731;28;20216;-85
2023/07/04 07:55:58;;;;;;;2.20;1.70;;;;;;;21.97;62.07;95649.69;5069442;28;20201;-84
2023/07/04 07:58:24;;;;;;;2.03;1.83;;;;;;;21.97;62.49;95652.31;5060604;28;20205;-84
2023/07/04 08:00:51;;;;;;;1.83;1.73;;;;;;;22.08;62.73;95652.47;5069538;28;20205;-85
2023/07/04 08:03:18;;;;;;;2.00;1.80;;;;;;;21.86;62.19;95653.25;5069117;28;20211;-84
2023/07/04 08:05:45;;;;;;;1.65;1.55;;;;;;;21.85;62.51;95649.06;5086262;28;20608;-84
2023/07/04 08:08:13;;;;;;;2.70;1.70;;;;;;;21.85;62.60;95646.44;5090611;28;20254;-84
2023/07/04 08:10:41;;;;;;;2.25;1.50;;;;;;;21.90;61.94;95646.50;5093202;28;20219;-84
2023/07/04 08:13:09;;;;;;;2.20;2.00;;;;;;;21.97;61.82;95643.66;5093393;28;20210;-84
2023/07/04 08:15:35;;;;;;;2.67;2.03;;;;;;;22.22;62.01;95643.97;5082612;28;20224;-84
2023/07/04 08:18:06;;;;;;;2.67;2.13;;;;;;;22.34;61.45;95654.28;5063297;28;20204;-84
2023/07/04 08:20:34;;;;;;;3.28;2.10;;;;;;;22.38;62.22;95645.69;5071309;28;20193;-84
2023/07/04 08:23:00;;;;;;;2.30;2.10;;;;;;;22.40;61.07;95646.22;5053415;28;20693;-85
2023/07/04 08:25:27;;;;;;;2.08;1.88;;;;;;;22.39;60.71;95649.88;5052806;28;20228;-84
2023/07/04 08:27:53;;;;;;;2.53;2.15;;;;;;;22.50;61.73;95655.25;5052945;28;20285;-85
2023/07/04 08:30:21;;;;;;;2.03;1.80;;;;;;;22.66;61.28;95651.69;5052426;28;20221;-85
2023/07/04 08:32:47;;;;;;;2.22;1.80;;;;;;;22.59;61.15;95657.16;5053443;28;20931;-85
2023/07/04 08:35:13;;;;;;;2.03;1.83;;;;;;;22.68;60.74;95653.03;5053678;28;20228;-84
2023/07/04 08:37:41;;;;;;;2.20;1.98;;;;;;;23.04;60.06;95655.94;5055661;28;20205;-85
2023/07/04 08:40:09;;;;;;;3.05;2.03;;;;;;;23.00;58.95;95662.75;5093852;28;20283;-84
2023/07/04 08:42:39;;;;;;;4.80;2.13;;;;;;;23.11;58.76;95650.47;5093714;28;20292;-85
2023/07/04 08:45:12;;;;;;;2.33;2.10;;;;;;;23.03;58.86;95651.75;5093373;28;20778;-84
2023/07/04 08:47:41;;;;;;;2.38;1.95;;;;;;;23.04;58.93;95658.56;5082651;28;20232;-85
2023/07/04 08:50:14;;;;;;;2.22;2.03;;;;;;;22.81;59.48;95648.44;5072614;28;20224;-84
2023/07/04 08:52:48;;;;;;;3.20;2.15;;;;;;;22.95;59.05;95652.19;5071259;28;20205;-84
2023/07/04 08:55:16;;;;;;;2.08;1.88;;;;;;;23.08;58.29;95649.16;5060420;28;20216;-84
2023/07/04 08:57:48;;;;;;;2.15;1.98;;;;;;;23.32;58.01;95646.91;5072088;28;20193;-83
2023/07/04 09:00:27;;;;;;;2.50;2.13;;;;;;;23.36;57.64;95648.78;5074581;28;20822;-84
2023/07/04 09:03:17;;;;;;;3.33;1.80;;;;;;;23.67;57.19;95656.81;5081119;28;20236;-85
2023/07/04 09:05:53;;;;;;;3.05;1.95;;;;;;;23.63;56.50;95650.53;5092883;28;20200;-84
2023/07/04 09:08:33;;;;;;;4.10;2.05;;;;;;;23.77;55.25;95643.72;5092203;28;20207;-84
2023/07/04 09:11:02;;;;;;;3.60;1.70;;;;;;;23.90;55.17;95645.88;5092540;28;20223;-85
2023/07/04 09:13:35;;;;;;;2.88;2.20;;;;;;;24.08;54.78;95641.97;5075120;28;20236;-85
2023/07/04 09:16:07;;;;;;;2.25;1.98;;;;;;;23.81;54.13;95644.81;5066930;28;20200;-84
2023/07/04 09:18:39;;;;;;;2.05;1.85;;;;;;;23.63;56.34;95642.63;5066917;28;20254;-84
2023/07/04 09:21:11;;;;;;;3.88;2.10;;;;;;;23.43;54.96;95640.66;5064779;28;20259;-84
2023/07/04 09:23:40;;;;;;;3.45;2.00;;;;;;;23.22;55.29;95641.59;5052399;28;20826;-84
2023/07/04 09:26:09;;;;;;;3.17;2.05;;;;;;;23.08;55.78;95646.53;5051253;28;20213;-84
2023/07/04 09:28:40;;;;;;;2.15;1.92;;;;;;;22.86;56.27;95636.13;5052403;28;20589;-84
2023/07/04 09:31:15;;;;;;;3.22;2.17;;;;;;;23.23;56.13;95651.06;5050598;28;20335;-84
2023/07/04 09:33:43;;;;;;;2.40;2.17;;;;;;;23.74;54.90;95639.78;5051413;28;20228;-84
2023/07/04 09:36:10;;;;;;;3.67;2.22;;;;;;;24.30;54.63;95636.50;5051517;28;20722;-84
2023/07/04 09:38:53;;;;;;;3.08;2.22;;;;;;;24.60;52.48;95636.56;5069361;28;20755;-85
2023/07/04 09:41:20;;;;;;;2.38;2.13;;;;;;;24.59;50.53;95634.97;5091897;28;20196;-84
2023/07/04 09:43:47;;;;;;;2.33;2.10;;;;;;;24.64;50.30;95634.97;5092143;28;20220;-84
2023/07/04 09:46:20;;;;;;;2.40;2.20;;;;;;;24.66;50.82;95634.69;5091884;28;20632;-85
2023/07/04 09:48:46;;;;;;;3.35;2.33;;;;;;;24.64;51.39;95632.31;5071937;28;20197;-84
2023/07/04 09:51:22;;;;;;;2.70;2.38;;;;;;;24.42;51.02;95629.97;5058696;28;20228;-85
2023/07/04 09:53:50;;;;;;;3.45;2.45;;;;;;;24.58;50.33;95630.75;5051550;28;20221;-84
2023/07/04 09:56:26;;;;;;;2.45;2.25;;;;;;;24.49;51.05;95631.53;5051412;28;20224;-85
2023/07/04 09:59:11;;;;;;;2.75;2.55;;;;;;;24.42;51.07;95629.97;5079928;28;20263;-84
2023/07/04 10:01:39;;;;;;;3.25;2.70;;;;;;;24.51;51.59;95624.97;5091105;28;20207;-84
2023/07/04 10:04:07;;;;;;;2.70;2.40;;;;;;;24.41;51.58;95630.22;5091100;28;20242;-84
2023/07/04 10:06:36;;;;;;;4.18;2.70;;;;;;;24.20;50.94;95632.00;5091353;28;20287;-85
2023/07/04 10:09:15;;;;;;;2.83;2.50;;;;;;;24.75;51.24;95622.59;5091850;28;20219;-85
2023/07/04 10:11:42;;;;;;;3.10;2.72;;;;;;;25.10;51.05;95617.28;5091450;28;20541;-85
2023/07/04 10:14:10;;;;;;;2.35;2.15;;;;;;;25.34;50.18;95617.50;5090913;28;20232;-85
2023/07/04 10:16:44;;;;;;;3.70;2.70;;;;;;;25.05;50.21;95616.50;5091107;28;20208;-85
2023/07/04 10:19:12;;;;;;;3.25;2.38;;;;;;;24.71;51.30;95614.41;5071442;28;20231;-85
2023/07/04 10:21:40;;;;;;;3.92;2.60;;;;;;;24.50;51.94;95617.31;5059889;28;20197;-84
2023/07/04 10:24:09;;;;;;;4.78;2.78;;;;;;;24.36;52.24;95617.06;5050693;28;20226;-84
2023/07/04 10:26:36;;;;;;;3.42;2.75;;;;;;;24.67;50.21;95612.56;5051216;28;20201;-85
2023/07/04 10:29:03;;;;;;;3.55;2.50;;;;;;;24.92;49.56;95598.59;5051560;28;20297;-84
2023/07/04 10:31:31;;;;;;;4.85;2.38;;;;;;;24.82;50.43;95604.69;5049395;28;20221;-85
2023/07/04 10:34:01;;;;;;;2.95;2.50;;;;;;;24.86;50.48;95607.56;5050540;28;20229;-84
2023/07/04 10:36:31;;;;;;;3.42;2.55;;;;;;;24.90;49.72;95606.75;5050838;28;20205;-85
2023/07/04 10:39:01;;;;;;;2.80;2.50;;;;;;;25.05;49.18;95595.44;5075269;28;20271;-85
2023/07/04 10:41:37;;;;;;;3.65;2.65;;;;;;;25.25;48.93;95595.38;5090651;28;20200;-84
2023/07/04 10:44:09;;;;;;;2.85;2.55;;;;;;;25.32;47.47;95590.63;5089649;28;20220;-84
2023/07/04 10:46:42;;;;;;;2.72;2.38;;;;;;;25.55;46.25;95593.72;5064294;28;20208;-84
2023/07/04 10:49:16;;;;;;;2.88;2.40;;;;;;;25.53;45.48;95588.69;5063529;28;20596;-84
2023/07/04 10:51:45;;;;;;;3.28;2.78;;;;;;;25.99;45.74;95584.00;5069326;28;20613;-84
2023/07/04 10:54:13;;;;;;;3.13;2.67;;;;;;;26.40;45.25;95583.75;5083352;28;20273;-84
2023/07/04 10:56:46;;;;;;;4.90;2.80;;;;;;;26.48;44.69;95578.66;5050053;28;20228;-84
2023/07/04 10:59:17;;;;;;;5.93;2.90;;;;;;;26.45;44.42;95575.78;5049781;28;20669;-85
2023/07/04 11:01:48;;;;;;;3.03;2.42;;;;;;;26.23;45.54;95578.81;5048919;28;20197;-84
2023/07/04 11:04:20;;;;;;;4.18;3.20;;;;;;;26.22;45.76;95584.38;5049706;28;20217;-84
2023/07/04 11:06:52;;;;;;;3.65;3.00;;;;;;;26.69;44.19;95576.63;5049542;28;20240;-84
2023/07/04 11:09:19;;;;;;;4.47;3.33;;;;;;;26.82;44.49;95575.97;5049607;28;20606;-84
2023/07/04 11:11:49;;;;;;;5.00;2.80;;;;;;;27.03;42.85;95591.66;5049411;28;20228;-84
2023/07/04 11:14:20;;;;;;;4.22;2.97;;;;;;;27.31;43.12;95579.47;5048956;28;20236;-84
2023/07/04 11:16:47;;;;;;;3.67;2.83;;;;;;;27.43;43.31;95577.22;5049495;28;20208;-83
2023/07/04 11:19:20;;;;;;;5.20;3.50;;;;;;;27.53;42.07;95579.72;5069608;28;20577;-84
2023/07/04 11:22:14;;;;;;;3.33;2.78;;;;;;;27.41;40.59;95568.78;5057129;28;20209;-84
2023/07/04 11:24:45;;;;;;;3.67;2.85;;;;;;;27.43;40.09;95572.72;5049530;28;20253;-83
2023/07/04 11:27:15;;;;;;;4.93;3.08;;;;;;;27.55;40.94;95577.56;5049253;28;20212;-85
2023/07/04 11:29:51;;;;;;;4.55;3.50;;;;;;;27.14;41.91;95567.47;5049090;28;20666;-84
2023/07/04 11:32:22;;;;;;;4.28;2.78;;;;;;;26.78;42.21;95571.53;5048582;28;20201;-84
2023/07/04 11:34:51;;;;;;;3.55;2.83;;;;;;;26.78;42.09;95564.38;5049289;28;20270;-84
2023/07/04 11:37:24;;;;;;;3.05;2.65;;;;;;;26.85;42.13;95558.78;5048884;28;20201;-84
2023/07/04 11:39:54;;;;;;;6.10;3.00;;;;;;;27.08;41.37;95567.81;5048581;28;20728;-84